sensor_id;sensor_type;location;lat;lon;timestamp;P1;durP1;ratioP1;P2;durP2;ratioP2
6475;SDS011;3271;51.910;5.840;2023-07-22T00:02:05;7.75;;;6.95;;
6475;SDS011;3271;51.910;5.840;2023-07-22T00:04:31;6.47;;;5.80;;
6475;SDS011;3271;51.910;5.840;2023-07-22T00:06:57;7.10;;;6.40;;
6475;SDS011;3271;51.910;5.840;2023-07-22T00:09:23;7.25;;;6.55;;
6475;SDS011;3271;51.910;5.840;2023-07-22T00:11:49;8.07;;;6.13;;
6475;SDS011;3271;51.910;5.840;2023-07-22T00:14:15;9.48;;;7.10;;
6475;SDS011;3271;51.910;5.840;2023-07-22T00:16:41;7.88;;;6.45;;
6475;SDS011;3271;51.910;5.840;2023-07-22T00:19:07;6.93;;;5.93;;
6475;SDS011;3271;51.910;5.840;2023-07-22T00:21:33;6.95;;;6.20;;
6475;SDS011;3271;51.910;5.840;2023-07-22T00:23:59;7.72;;;6.93;;
6475;SDS011;3271;51.910;5.840;2023-07-22T00:26:25;7.80;;;6.75;;
6475;SDS011;3271;51.910;5.840;2023-07-22T00:28:52;8.75;;;7.47;;
6475;SDS011;3271;51.910;5.840;2023-07-22T00:31:18;8.80;;;7.20;;
6475;SDS011;3271;51.910;5.840;2023-07-22T00:33:43;9.60;;;8.20;;
6475;SDS011;3271;51.910;5.840;2023-07-22T00:36:09;8.93;;;7.82;;
6475;SDS011;3271;51.910;5.840;2023-07-22T00:38:35;9.55;;;7.75;;
6475;SDS011;3271;51.910;5.840;2023-07-22T00:41:01;9.80;;;7.60;;
6475;SDS011;3271;51.910;5.840;2023-07-22T00:43:29;9.10;;;7.60;;
6475;SDS011;3271;51.910;5.840;2023-07-22T00:45:55;9.60;;;7.40;;
6475;SDS011;3271;51.910;5.840;2023-07-22T00:48:21;8.75;;;7.63;;
6475;SDS011;3271;51.910;5.840;2023-07-22T00:50:47;9.23;;;8.25;;
6475;SDS011;3271;51.910;5.840;2023-07-22T00:53:13;9.82;;;8.43;;
6475;SDS011;3271;51.910;5.840;2023-07-22T00:55:39;9.45;;;8.15;;
6475;SDS011;3271;51.910;5.840;2023-07-22T00:58:06;9.75;;;8.18;;
6475;SDS011;3271;51.910;5.840;2023-07-22T01:00:32;9.00;;;7.75;;
6475;SDS011;3271;51.910;5.840;2023-07-22T01:02:58;9.77;;;8.30;;
6475;SDS011;3271;51.910;5.840;2023-07-22T01:05:25;10.45;;;8.15;;
6475;SDS011;3271;51.910;5.840;2023-07-22T01:07:51;10.07;;;8.35;;
6475;SDS011;3271;51.910;5.840;2023-07-22T01:10:17;9.00;;;8.07;;
6475;SDS011;3271;51.910;5.840;2023-07-22T01:12:43;11.20;;;9.10;;
6475;SDS011;3271;51.910;5.840;2023-07-22T01:15:09;10.07;;;8.77;;
6475;SDS011;3271;51.910;5.840;2023-07-22T01:17:39;10.80;;;9.25;;
6475;SDS011;3271;51.910;5.840;2023-07-22T01:20:05;11.07;;;8.70;;
6475;SDS011;3271;51.910;5.840;2023-07-22T01:22:34;10.10;;;8.93;;
6475;SDS011;3271;51.910;5.840;2023-07-22T01:25:01;13.05;;;9.63;;
6475;SDS011;3271;51.910;5.840;2023-07-22T01:27:28;10.02;;;8.45;;
6475;SDS011;3271;51.910;5.840;2023-07-22T01:29:54;11.45;;;8.77;;
6475;SDS011;3271;51.910;5.840;2023-07-22T01:32:20;12.02;;;9.27;;
6475;SDS011;3271;51.910;5.840;2023-07-22T01:34:46;10.25;;;9.00;;
6475;SDS011;3271;51.910;5.840;2023-07-22T01:37:12;11.15;;;9.55;;
6475;SDS011;3271;51.910;5.840;2023-07-22T01:39:41;10.35;;;8.90;;
6475;SDS011;3271;51.910;5.840;2023-07-22T01:42:07;11.40;;;9.15;;
6475;SDS011;3271;51.910;5.840;2023-07-22T01:44:33;11.48;;;9.45;;
6475;SDS011;3271;51.910;5.840;2023-07-22T01:47:01;10.98;;;9.30;;
6475;SDS011;3271;51.910;5.840;2023-07-22T01:49:27;12.57;;;8.57;;
6475;SDS011;3271;51.910;5.840;2023-07-22T01:51:53;10.75;;;9.65;;
6475;SDS011;3271;51.910;5.840;2023-07-22T01:54:19;12.75;;;9.10;;
6475;SDS011;3271;51.910;5.840;2023-07-22T01:56:45;10.93;;;8.57;;
6475;SDS011;3271;51.910;5.840;2023-07-22T01:59:11;9.60;;;8.45;;
6475;SDS011;3271;51.910;5.840;2023-07-22T02:01:37;10.48;;;8.90;;
6475;SDS011;3271;51.910;5.840;2023-07-22T02:04:03;10.50;;;9.30;;
6475;SDS011;3271;51.910;5.840;2023-07-22T02:06:31;11.35;;;9.00;;
6475;SDS011;3271;51.910;5.840;2023-07-22T02:08:57;10.23;;;9.00;;
6475;SDS011;3271;51.910;5.840;2023-07-22T02:11:23;12.13;;;8.77;;
6475;SDS011;3271;51.910;5.840;2023-07-22T02:13:49;11.50;;;9.20;;
6475;SDS011;3271;51.910;5.840;2023-07-22T02:16:15;12.55;;;9.82;;
6475;SDS011;3271;51.910;5.840;2023-07-22T02:18:41;12.95;;;9.38;;
6475;SDS011;3271;51.910;5.840;2023-07-22T02:21:07;11.05;;;9.18;;
6475;SDS011;3271;51.910;5.840;2023-07-22T02:23:33;14.75;;;9.73;;
6475;SDS011;3271;51.910;5.840;2023-07-22T02:25:59;13.55;;;9.93;;
6475;SDS011;3271;51.910;5.840;2023-07-22T02:28:25;11.45;;;9.30;;
6475;SDS011;3271;51.910;5.840;2023-07-22T02:30:51;10.98;;;9.50;;
6475;SDS011;3271;51.910;5.840;2023-07-22T02:33:18;11.25;;;9.32;;
6475;SDS011;3271;51.910;5.840;2023-07-22T02:35:44;11.43;;;8.90;;
6475;SDS011;3271;51.910;5.840;2023-07-22T02:38:11;11.48;;;8.50;;
6475;SDS011;3271;51.910;5.840;2023-07-22T02:40:37;13.18;;;9.60;;
6475;SDS011;3271;51.910;5.840;2023-07-22T02:43:03;11.45;;;8.75;;
6475;SDS011;3271;51.910;5.840;2023-07-22T02:45:30;10.45;;;8.30;;
6475;SDS011;3271;51.910;5.840;2023-07-22T02:47:56;10.45;;;8.15;;
6475;SDS011;3271;51.910;5.840;2023-07-22T02:50:22;10.13;;;9.00;;
6475;SDS011;3271;51.910;5.840;2023-07-22T02:52:48;10.85;;;9.27;;
6475;SDS011;3271;51.910;5.840;2023-07-22T02:55:15;13.95;;;9.65;;
6475;SDS011;3271;51.910;5.840;2023-07-22T02:57:45;11.50;;;9.20;;
6475;SDS011;3271;51.910;5.840;2023-07-22T03:00:11;11.55;;;9.45;;
6475;SDS011;3271;51.910;5.840;2023-07-22T03:02:38;12.05;;;9.40;;
6475;SDS011;3271;51.910;5.840;2023-07-22T03:05:04;11.50;;;9.18;;
6475;SDS011;3271;51.910;5.840;2023-07-22T03:07:33;10.88;;;9.35;;
6475;SDS011;3271;51.910;5.840;2023-07-22T03:09:59;12.30;;;10.18;;
6475;SDS011;3271;51.910;5.840;2023-07-22T03:12:25;12.13;;;9.02;;
6475;SDS011;3271;51.910;5.840;2023-07-22T03:14:52;14.85;;;10.13;;
6475;SDS011;3271;51.910;5.840;2023-07-22T03:17:18;11.00;;;9.75;;
6475;SDS011;3271;51.910;5.840;2023-07-22T03:19:44;14.93;;;10.02;;
6475;SDS011;3271;51.910;5.840;2023-07-22T03:22:10;12.38;;;9.95;;
6475;SDS011;3271;51.910;5.840;2023-07-22T03:24:36;11.88;;;9.32;;
6475;SDS011;3271;51.910;5.840;2023-07-22T03:27:02;13.57;;;9.65;;
6475;SDS011;3271;51.910;5.840;2023-07-22T03:29:28;12.30;;;10.02;;
6475;SDS011;3271;51.910;5.840;2023-07-22T03:31:54;12.75;;;9.80;;
6475;SDS011;3271;51.910;5.840;2023-07-22T03:34:22;13.63;;;9.85;;
6475;SDS011;3271;51.910;5.840;2023-07-22T03:36:48;12.27;;;9.80;;
6475;SDS011;3271;51.910;5.840;2023-07-22T03:39:14;12.05;;;9.50;;
6475;SDS011;3271;51.910;5.840;2023-07-22T03:41:40;17.42;;;10.70;;
6475;SDS011;3271;51.910;5.840;2023-07-22T03:44:06;15.57;;;10.85;;
6475;SDS011;3271;51.910;5.840;2023-07-22T03:46:32;14.35;;;10.35;;
6475;SDS011;3271;51.910;5.840;2023-07-22T03:48:57;12.98;;;10.63;;
6475;SDS011;3271;51.910;5.840;2023-07-22T03:51:23;14.52;;;10.02;;
6475;SDS011;3271;51.910;5.840;2023-07-22T03:53:49;15.30;;;9.98;;
6475;SDS011;3271;51.910;5.840;2023-07-22T03:56:15;13.30;;;10.15;;
6475;SDS011;3271;51.910;5.840;2023-07-22T03:58:41;16.33;;;10.98;;
6475;SDS011;3271;51.910;5.840;2023-07-22T04:01:10;16.50;;;9.65;;
6475;SDS011;3271;51.910;5.840;2023-07-22T04:03:36;14.68;;;9.52;;
6475;SDS011;3271;51.910;5.840;2023-07-22T04:06:01;13.38;;;9.93;;
6475;SDS011;3271;51.910;5.840;2023-07-22T04:08:27;12.95;;;9.52;;
6475;SDS011;3271;51.910;5.840;2023-07-22T04:10:54;15.48;;;10.63;;
6475;SDS011;3271;51.910;5.840;2023-07-22T04:13:20;14.00;;;9.95;;
6475;SDS011;3271;51.910;5.840;2023-07-22T04:15:47;13.57;;;10.15;;
6475;SDS011;3271;51.910;5.840;2023-07-22T04:18:14;12.85;;;10.27;;
6475;SDS011;3271;51.910;5.840;2023-07-22T04:20:40;12.85;;;10.50;;
6475;SDS011;3271;51.910;5.840;2023-07-22T04:23:06;14.80;;;10.88;;
6475;SDS011;3271;51.910;5.840;2023-07-22T04:25:32;16.13;;;10.43;;
6475;SDS011;3271;51.910;5.840;2023-07-22T04:27:58;13.45;;;10.73;;
6475;SDS011;3271;51.910;5.840;2023-07-22T04:30:24;15.32;;;10.75;;
6475;SDS011;3271;51.910;5.840;2023-07-22T04:32:50;15.38;;;11.23;;
6475;SDS011;3271;51.910;5.840;2023-07-22T04:35:16;15.18;;;11.27;;
6475;SDS011;3271;51.910;5.840;2023-07-22T04:37:43;16.65;;;11.50;;
6475;SDS011;3271;51.910;5.840;2023-07-22T04:40:10;17.52;;;11.43;;
6475;SDS011;3271;51.910;5.840;2023-07-22T04:42:39;13.85;;;10.85;;
6475;SDS011;3271;51.910;5.840;2023-07-22T04:45:06;17.38;;;11.70;;
6475;SDS011;3271;51.910;5.840;2023-07-22T04:47:33;15.27;;;11.05;;
6475;SDS011;3271;51.910;5.840;2023-07-22T04:49:59;15.30;;;11.50;;
6475;SDS011;3271;51.910;5.840;2023-07-22T04:52:25;15.48;;;10.98;;
6475;SDS011;3271;51.910;5.840;2023-07-22T04:54:51;19.42;;;12.13;;
6475;SDS011;3271;51.910;5.840;2023-07-22T04:57:18;14.30;;;10.90;;
6475;SDS011;3271;51.910;5.840;2023-07-22T04:59:44;16.08;;;11.60;;
6475;SDS011;3271;51.910;5.840;2023-07-22T05:02:10;17.42;;;12.00;;
6475;SDS011;3271;51.910;5.840;2023-07-22T05:04:35;17.13;;;12.27;;
6475;SDS011;3271;51.910;5.840;2023-07-22T05:07:02;15.07;;;10.70;;
6475;SDS011;3271;51.910;5.840;2023-07-22T05:09:28;14.25;;;11.57;;
6475;SDS011;3271;51.910;5.840;2023-07-22T05:11:54;14.68;;;11.55;;
6475;SDS011;3271;51.910;5.840;2023-07-22T05:14:20;17.40;;;11.98;;
6475;SDS011;3271;51.910;5.840;2023-07-22T05:16:47;14.40;;;11.77;;
6475;SDS011;3271;51.910;5.840;2023-07-22T05:19:13;14.40;;;11.13;;
6475;SDS011;3271;51.910;5.840;2023-07-22T05:21:39;16.65;;;11.63;;
6475;SDS011;3271;51.910;5.840;2023-07-22T05:24:06;14.75;;;11.15;;
6475;SDS011;3271;51.910;5.840;2023-07-22T05:26:32;32.47;;;12.65;;
6475;SDS011;3271;51.910;5.840;2023-07-22T05:28:58;14.73;;;11.45;;
6475;SDS011;3271;51.910;5.840;2023-07-22T05:31:24;16.20;;;11.77;;
6475;SDS011;3271;51.910;5.840;2023-07-22T05:33:50;16.73;;;12.60;;
6475;SDS011;3271;51.910;5.840;2023-07-22T05:36:16;18.83;;;11.52;;
6475;SDS011;3271;51.910;5.840;2023-07-22T05:38:41;16.23;;;12.32;;
6475;SDS011;3271;51.910;5.840;2023-07-22T05:41:07;19.38;;;12.95;;
6475;SDS011;3271;51.910;5.840;2023-07-22T05:43:33;15.20;;;11.23;;
6475;SDS011;3271;51.910;5.840;2023-07-22T05:45:59;14.40;;;11.85;;
6475;SDS011;3271;51.910;5.840;2023-07-22T05:48:25;15.98;;;12.13;;
6475;SDS011;3271;51.910;5.840;2023-07-22T05:50:51;17.70;;;12.15;;
6475;SDS011;3271;51.910;5.840;2023-07-22T05:53:17;18.85;;;13.48;;
6475;SDS011;3271;51.910;5.840;2023-07-22T05:55:43;17.50;;;13.68;;
6475;SDS011;3271;51.910;5.840;2023-07-22T05:58:15;17.98;;;11.98;;
6475;SDS011;3271;51.910;5.840;2023-07-22T06:00:41;19.00;;;12.82;;
6475;SDS011;3271;51.910;5.840;2023-07-22T06:03:07;17.80;;;12.88;;
6475;SDS011;3271;51.910;5.840;2023-07-22T06:05:33;16.48;;;12.00;;
6475;SDS011;3271;51.910;5.840;2023-07-22T06:07:59;27.27;;;12.88;;
6475;SDS011;3271;51.910;5.840;2023-07-22T06:10:25;17.35;;;12.82;;
6475;SDS011;3271;51.910;5.840;2023-07-22T06:12:51;17.92;;;12.32;;
6475;SDS011;3271;51.910;5.840;2023-07-22T06:15:18;17.10;;;12.77;;
6475;SDS011;3271;51.910;5.840;2023-07-22T06:17:44;15.32;;;12.38;;
6475;SDS011;3271;51.910;5.840;2023-07-22T06:20:10;18.63;;;13.38;;
6475;SDS011;3271;51.910;5.840;2023-07-22T06:22:36;14.02;;;11.77;;
6475;SDS011;3271;51.910;5.840;2023-07-22T06:25:02;16.35;;;12.35;;
6475;SDS011;3271;51.910;5.840;2023-07-22T06:27:28;15.65;;;12.05;;
6475;SDS011;3271;51.910;5.840;2023-07-22T06:29:54;14.55;;;11.70;;
6475;SDS011;3271;51.910;5.840;2023-07-22T06:32:20;15.77;;;11.52;;
6475;SDS011;3271;51.910;5.840;2023-07-22T06:34:46;15.27;;;10.80;;
6475;SDS011;3271;51.910;5.840;2023-07-22T06:37:12;17.80;;;12.50;;
6475;SDS011;3271;51.910;5.840;2023-07-22T06:39:38;14.82;;;11.35;;
6475;SDS011;3271;51.910;5.840;2023-07-22T06:42:04;15.10;;;11.43;;
6475;SDS011;3271;51.910;5.840;2023-07-22T06:44:30;18.42;;;11.30;;
6475;SDS011;3271;51.910;5.840;2023-07-22T06:46:56;15.45;;;11.30;;
6475;SDS011;3271;51.910;5.840;2023-07-22T06:49:22;19.75;;;12.30;;
6475;SDS011;3271;51.910;5.840;2023-07-22T06:51:48;17.25;;;11.18;;
6475;SDS011;3271;51.910;5.840;2023-07-22T06:54:14;14.38;;;10.52;;
6475;SDS011;3271;51.910;5.840;2023-07-22T06:56:40;16.63;;;10.43;;
6475;SDS011;3271;51.910;5.840;2023-07-22T06:59:06;17.45;;;12.05;;
6475;SDS011;3271;51.910;5.840;2023-07-22T07:01:32;15.73;;;10.95;;
6475;SDS011;3271;51.910;5.840;2023-07-22T07:03:58;14.38;;;10.38;;
6475;SDS011;3271;51.910;5.840;2023-07-22T07:06:24;12.05;;;9.73;;
6475;SDS011;3271;51.910;5.840;2023-07-22T07:08:50;13.35;;;11.30;;
6475;SDS011;3271;51.910;5.840;2023-07-22T07:11:17;13.85;;;11.27;;
6475;SDS011;3271;51.910;5.840;2023-07-22T07:13:43;16.25;;;11.13;;
6475;SDS011;3271;51.910;5.840;2023-07-22T07:18:48;17.35;;;11.43;;
6475;SDS011;3271;51.910;5.840;2023-07-22T07:21:14;13.10;;;10.65;;
6475;SDS011;3271;51.910;5.840;2023-07-22T07:23:40;14.32;;;10.23;;
6475;SDS011;3271;51.910;5.840;2023-07-22T07:26:06;16.05;;;10.15;;
6475;SDS011;3271;51.910;5.840;2023-07-22T07:28:31;24.40;;;10.68;;
6475;SDS011;3271;51.910;5.840;2023-07-22T07:30:57;14.82;;;10.27;;
6475;SDS011;3271;51.910;5.840;2023-07-22T07:33:23;14.35;;;11.40;;
6475;SDS011;3271;51.910;5.840;2023-07-22T07:35:49;14.10;;;10.73;;
6475;SDS011;3271;51.910;5.840;2023-07-22T07:38:15;17.42;;;12.23;;
6475;SDS011;3271;51.910;5.840;2023-07-22T07:40:41;14.77;;;10.60;;
6475;SDS011;3271;51.910;5.840;2023-07-22T07:43:07;13.60;;;9.65;;
6475;SDS011;3271;51.910;5.840;2023-07-22T07:45:33;13.05;;;10.63;;
6475;SDS011;3271;51.910;5.840;2023-07-22T07:47:59;17.05;;;11.40;;
6475;SDS011;3271;51.910;5.840;2023-07-22T07:50:25;14.57;;;9.82;;
6475;SDS011;3271;51.910;5.840;2023-07-22T07:52:51;15.45;;;10.00;;
6475;SDS011;3271;51.910;5.840;2023-07-22T07:55:17;14.73;;;10.68;;
6475;SDS011;3271;51.910;5.840;2023-07-22T07:57:43;17.20;;;10.52;;
6475;SDS011;3271;51.910;5.840;2023-07-22T08:00:09;15.93;;;11.25;;
6475;SDS011;3271;51.910;5.840;2023-07-22T08:02:35;14.32;;;11.20;;
6475;SDS011;3271;51.910;5.840;2023-07-22T08:05:01;14.43;;;10.32;;
6475;SDS011;3271;51.910;5.840;2023-07-22T08:07:27;12.63;;;10.65;;
6475;SDS011;3271;51.910;5.840;2023-07-22T08:09:53;13.73;;;10.20;;
6475;SDS011;3271;51.910;5.840;2023-07-22T08:12:19;13.20;;;9.77;;
6475;SDS011;3271;51.910;5.840;2023-07-22T08:14:45;17.90;;;9.50;;
6475;SDS011;3271;51.910;5.840;2023-07-22T08:17:11;12.30;;;9.25;;
6475;SDS011;3271;51.910;5.840;2023-07-22T08:19:37;14.07;;;10.18;;
6475;SDS011;3271;51.910;5.840;2023-07-22T08:22:03;14.80;;;10.40;;
6475;SDS011;3271;51.910;5.840;2023-07-22T08:24:29;14.25;;;10.75;;
6475;SDS011;3271;51.910;5.840;2023-07-22T08:26:55;13.85;;;10.10;;
6475;SDS011;3271;51.910;5.840;2023-07-22T08:29:21;15.13;;;10.18;;
6475;SDS011;3271;51.910;5.840;2023-07-22T08:31:47;12.75;;;9.82;;
6475;SDS011;3271;51.910;5.840;2023-07-22T08:34:13;13.82;;;9.95;;
6475;SDS011;3271;51.910;5.840;2023-07-22T08:36:41;12.68;;;9.60;;
6475;SDS011;3271;51.910;5.840;2023-07-22T08:39:07;15.50;;;10.65;;
6475;SDS011;3271;51.910;5.840;2023-07-22T08:41:33;13.43;;;10.60;;
6475;SDS011;3271;51.910;5.840;2023-07-22T08:44:00;12.48;;;10.30;;
6475;SDS011;3271;51.910;5.840;2023-07-22T08:46:28;12.07;;;8.80;;
6475;SDS011;3271;51.910;5.840;2023-07-22T08:48:55;12.75;;;9.63;;
6475;SDS011;3271;51.910;5.840;2023-07-22T08:51:22;13.77;;;9.63;;
6475;SDS011;3271;51.910;5.840;2023-07-22T08:53:49;15.77;;;10.02;;
6475;SDS011;3271;51.910;5.840;2023-07-22T08:56:16;15.57;;;10.70;;
6475;SDS011;3271;51.910;5.840;2023-07-22T08:58:42;16.25;;;9.00;;
6475;SDS011;3271;51.910;5.840;2023-07-22T09:01:08;14.55;;;9.73;;
6475;SDS011;3271;51.910;5.840;2023-07-22T09:03:34;11.45;;;8.43;;
6475;SDS011;3271;51.910;5.840;2023-07-22T09:06:00;11.48;;;7.75;;
6475;SDS011;3271;51.910;5.840;2023-07-22T09:08:27;9.48;;;6.95;;
6475;SDS011;3271;51.910;5.840;2023-07-22T09:10:53;9.35;;;7.35;;
6475;SDS011;3271;51.910;5.840;2023-07-22T09:13:19;10.60;;;7.05;;
6475;SDS011;3271;51.910;5.840;2023-07-22T09:15:45;9.75;;;6.93;;
6475;SDS011;3271;51.910;5.840;2023-07-22T09:18:12;8.95;;;5.80;;
6475;SDS011;3271;51.910;5.840;2023-07-22T09:20:40;8.77;;;6.15;;
6475;SDS011;3271;51.910;5.840;2023-07-22T09:23:07;7.43;;;6.63;;
6475;SDS011;3271;51.910;5.840;2023-07-22T09:25:33;7.57;;;6.10;;
6475;SDS011;3271;51.910;5.840;2023-07-22T09:27:59;8.57;;;6.45;;
6475;SDS011;3271;51.910;5.840;2023-07-22T09:30:33;9.52;;;7.18;;
6475;SDS011;3271;51.910;5.840;2023-07-22T09:33:00;6.90;;;5.95;;
6475;SDS011;3271;51.910;5.840;2023-07-22T09:35:27;8.13;;;6.20;;
6475;SDS011;3271;51.910;5.840;2023-07-22T09:37:56;6.13;;;5.15;;
6475;SDS011;3271;51.910;5.840;2023-07-22T09:40:23;7.30;;;5.68;;
6475;SDS011;3271;51.910;5.840;2023-07-22T09:42:51;8.70;;;5.63;;
6475;SDS011;3271;51.910;5.840;2023-07-22T09:45:18;8.32;;;4.95;;
6475;SDS011;3271;51.910;5.840;2023-07-22T09:47:45;6.57;;;5.25;;
6475;SDS011;3271;51.910;5.840;2023-07-22T09:50:15;8.27;;;5.57;;
6475;SDS011;3271;51.910;5.840;2023-07-22T09:52:45;10.73;;;5.97;;
6475;SDS011;3271;51.910;5.840;2023-07-22T09:55:11;7.15;;;5.35;;
6475;SDS011;3271;51.910;5.840;2023-07-22T09:57:38;7.22;;;4.57;;
6475;SDS011;3271;51.910;5.840;2023-07-22T10:00:07;7.75;;;5.25;;
6475;SDS011;3271;51.910;5.840;2023-07-22T10:02:34;8.77;;;4.97;;
6475;SDS011;3271;51.910;5.840;2023-07-22T10:05:02;9.00;;;5.30;;
6475;SDS011;3271;51.910;5.840;2023-07-22T10:07:28;8.25;;;5.07;;
6475;SDS011;3271;51.910;5.840;2023-07-22T10:09:55;7.97;;;5.28;;
6475;SDS011;3271;51.910;5.840;2023-07-22T10:12:25;7.30;;;4.55;;
6475;SDS011;3271;51.910;5.840;2023-07-22T10:14:52;4.93;;;4.43;;
6475;SDS011;3271;51.910;5.840;2023-07-22T10:17:19;7.47;;;5.50;;
6475;SDS011;3271;51.910;5.840;2023-07-22T10:19:45;7.43;;;5.18;;
6475;SDS011;3271;51.910;5.840;2023-07-22T10:22:11;9.27;;;6.05;;
6475;SDS011;3271;51.910;5.840;2023-07-22T10:24:38;8.63;;;5.55;;
6475;SDS011;3271;51.910;5.840;2023-07-22T10:27:05;5.55;;;4.35;;
6475;SDS011;3271;51.910;5.840;2023-07-22T10:29:32;9.02;;;5.25;;
6475;SDS011;3271;51.910;5.840;2023-07-22T10:31:59;4.53;;;4.07;;
6475;SDS011;3271;51.910;5.840;2023-07-22T10:34:25;5.68;;;4.20;;
6475;SDS011;3271;51.910;5.840;2023-07-22T10:36:51;5.80;;;4.43;;
6475;SDS011;3271;51.910;5.840;2023-07-22T10:39:26;5.75;;;4.65;;
6475;SDS011;3271;51.910;5.840;2023-07-22T10:42:02;6.72;;;5.22;;
6475;SDS011;3271;51.910;5.840;2023-07-22T10:44:30;6.32;;;5.15;;
6475;SDS011;3271;51.910;5.840;2023-07-22T10:46:57;7.60;;;5.10;;
6475;SDS011;3271;51.910;5.840;2023-07-22T10:49:23;6.82;;;4.25;;
6475;SDS011;3271;51.910;5.840;2023-07-22T10:51:50;5.38;;;4.85;;
6475;SDS011;3271;51.910;5.840;2023-07-22T10:54:31;8.40;;;4.30;;
6475;SDS011;3271;51.910;5.840;2023-07-22T10:57:22;5.95;;;4.63;;
6475;SDS011;3271;51.910;5.840;2023-07-22T10:59:50;5.07;;;4.50;;
6475;SDS011;3271;51.910;5.840;2023-07-22T11:02:27;6.72;;;4.43;;
6475;SDS011;3271;51.910;5.840;2023-07-22T11:04:55;7.13;;;4.78;;
6475;SDS011;3271;51.910;5.840;2023-07-22T11:07:43;6.47;;;4.28;;
6475;SDS011;3271;51.910;5.840;2023-07-22T11:10:14;5.97;;;4.68;;
6475;SDS011;3271;51.910;5.840;2023-07-22T11:12:42;5.97;;;4.18;;
6475;SDS011;3271;51.910;5.840;2023-07-22T11:15:09;8.15;;;4.78;;
6475;SDS011;3271;51.910;5.840;2023-07-22T11:17:35;8.65;;;4.63;;
6475;SDS011;3271;51.910;5.840;2023-07-22T11:20:01;4.90;;;3.95;;
6475;SDS011;3271;51.910;5.840;2023-07-22T11:22:27;4.93;;;4.03;;
6475;SDS011;3271;51.910;5.840;2023-07-22T11:24:54;6.35;;;3.80;;
6475;SDS011;3271;51.910;5.840;2023-07-22T11:27:21;5.50;;;4.30;;
6475;SDS011;3271;51.910;5.840;2023-07-22T11:29:49;5.50;;;4.47;;
6475;SDS011;3271;51.910;5.840;2023-07-22T11:32:16;4.95;;;4.38;;
6475;SDS011;3271;51.910;5.840;2023-07-22T11:34:42;5.47;;;4.45;;
6475;SDS011;3271;51.910;5.840;2023-07-22T11:37:09;4.35;;;3.72;;
6475;SDS011;3271;51.910;5.840;2023-07-22T11:39:36;4.63;;;3.97;;
6475;SDS011;3271;51.910;5.840;2023-07-22T11:42:03;7.25;;;3.55;;
6475;SDS011;3271;51.910;5.840;2023-07-22T11:44:29;4.07;;;3.22;;
6475;SDS011;3271;51.910;5.840;2023-07-22T11:46:56;4.13;;;3.20;;
6475;SDS011;3271;51.910;5.840;2023-07-22T11:49:32;6.70;;;3.67;;
6475;SDS011;3271;51.910;5.840;2023-07-22T11:52:19;3.58;;;3.00;;
6475;SDS011;3271;51.910;5.840;2023-07-22T11:54:45;4.13;;;3.60;;
6475;SDS011;3271;51.910;5.840;2023-07-22T11:57:15;7.00;;;3.38;;
6475;SDS011;3271;51.910;5.840;2023-07-22T11:59:48;5.05;;;3.08;;
6475;SDS011;3271;51.910;5.840;2023-07-22T12:02:24;5.30;;;3.05;;
6475;SDS011;3271;51.910;5.840;2023-07-22T12:05:01;4.55;;;2.67;;
6475;SDS011;3271;51.910;5.840;2023-07-22T12:07:32;3.83;;;2.50;;
6475;SDS011;3271;51.910;5.840;2023-07-22T12:09:59;4.25;;;2.70;;
6475;SDS011;3271;51.910;5.840;2023-07-22T12:12:34;4.85;;;2.83;;
6475;SDS011;3271;51.910;5.840;2023-07-22T12:15:01;3.60;;;2.90;;
6475;SDS011;3271;51.910;5.840;2023-07-22T12:17:29;4.32;;;2.97;;
6475;SDS011;3271;51.910;5.840;2023-07-22T12:19:55;4.25;;;2.67;;
6475;SDS011;3271;51.910;5.840;2023-07-22T12:22:21;2.55;;;2.20;;
6475;SDS011;3271;51.910;5.840;2023-07-22T12:24:47;3.80;;;2.55;;
6475;SDS011;3271;51.910;5.840;2023-07-22T12:27:13;3.25;;;2.40;;
6475;SDS011;3271;51.910;5.840;2023-07-22T12:29:39;2.95;;;2.42;;
6475;SDS011;3271;51.910;5.840;2023-07-22T12:32:05;2.72;;;2.20;;
6475;SDS011;3271;51.910;5.840;2023-07-22T12:34:31;3.35;;;2.30;;
6475;SDS011;3271;51.910;5.840;2023-07-22T12:36:57;3.10;;;2.17;;
6475;SDS011;3271;51.910;5.840;2023-07-22T12:39:23;3.83;;;2.20;;
6475;SDS011;3271;51.910;5.840;2023-07-22T12:41:49;3.15;;;1.98;;
6475;SDS011;3271;51.910;5.840;2023-07-22T12:44:15;3.08;;;2.20;;
6475;SDS011;3271;51.910;5.840;2023-07-22T12:46:40;2.45;;;2.15;;
6475;SDS011;3271;51.910;5.840;2023-07-22T12:49:07;3.53;;;2.35;;
6475;SDS011;3271;51.910;5.840;2023-07-22T12:51:33;12.45;;;8.10;;
6475;SDS011;3271;51.910;5.840;2023-07-22T12:53:59;13.73;;;11.60;;
6475;SDS011;3271;51.910;5.840;2023-07-22T12:56:25;19.20;;;13.35;;
6475;SDS011;3271;51.910;5.840;2023-07-22T12:58:51;10.10;;;7.68;;
6475;SDS011;3271;51.910;5.840;2023-07-22T13:01:17;6.57;;;5.88;;
6475;SDS011;3271;51.910;5.840;2023-07-22T13:03:43;13.77;;;11.13;;
6475;SDS011;3271;51.910;5.840;2023-07-22T13:06:09;32.88;;;26.33;;
6475;SDS011;3271;51.910;5.840;2023-07-22T13:08:35;8.60;;;6.32;;
6475;SDS011;3271;51.910;5.840;2023-07-22T13:11:01;11.95;;;10.75;;
6475;SDS011;3271;51.910;5.840;2023-07-22T13:13:28;6.38;;;4.38;;
6475;SDS011;3271;51.910;5.840;2023-07-22T13:15:54;4.50;;;3.65;;
6475;SDS011;3271;51.910;5.840;2023-07-22T13:18:20;5.68;;;3.78;;
6475;SDS011;3271;51.910;5.840;2023-07-22T13:20:46;6.53;;;4.18;;
6475;SDS011;3271;51.910;5.840;2023-07-22T13:23:12;4.82;;;3.83;;
6475;SDS011;3271;51.910;5.840;2023-07-22T13:25:38;5.50;;;4.13;;
6475;SDS011;3271;51.910;5.840;2023-07-22T13:28:04;7.03;;;6.22;;
6475;SDS011;3271;51.910;5.840;2023-07-22T13:30:30;9.27;;;8.27;;
6475;SDS011;3271;51.910;5.840;2023-07-22T13:32:56;29.15;;;26.08;;
6475;SDS011;3271;51.910;5.840;2023-07-22T13:35:22;7.63;;;5.82;;
6475;SDS011;3271;51.910;5.840;2023-07-22T13:37:48;4.95;;;3.50;;
6475;SDS011;3271;51.910;5.840;2023-07-22T13:40:14;4.95;;;3.05;;
6475;SDS011;3271;51.910;5.840;2023-07-22T13:42:40;3.33;;;2.83;;
6475;SDS011;3271;51.910;5.840;2023-07-22T13:45:06;5.30;;;3.15;;
6475;SDS011;3271;51.910;5.840;2023-07-22T13:47:32;4.53;;;2.78;;
6475;SDS011;3271;51.910;5.840;2023-07-22T13:49:58;3.53;;;2.45;;
6475;SDS011;3271;51.910;5.840;2023-07-22T13:52:24;3.80;;;2.38;;
6475;SDS011;3271;51.910;5.840;2023-07-22T13:54:50;7.80;;;2.75;;
6475;SDS011;3271;51.910;5.840;2023-07-22T13:57:15;21.38;;;4.80;;
6475;SDS011;3271;51.910;5.840;2023-07-22T13:59:41;4.47;;;2.78;;
6475;SDS011;3271;51.910;5.840;2023-07-22T14:02:07;4.75;;;2.92;;
6475;SDS011;3271;51.910;5.840;2023-07-22T14:04:33;44.30;;;36.72;;
6475;SDS011;3271;51.910;5.840;2023-07-22T14:06:59;17.98;;;13.82;;
6475;SDS011;3271;51.910;5.840;2023-07-22T14:09:25;20.33;;;17.42;;
6475;SDS011;3271;51.910;5.840;2023-07-22T14:11:51;5.88;;;3.92;;
6475;SDS011;3271;51.910;5.840;2023-07-22T14:14:17;6.22;;;4.35;;
6475;SDS011;3271;51.910;5.840;2023-07-22T14:16:43;4.05;;;3.30;;
6475;SDS011;3271;51.910;5.840;2023-07-22T14:19:09;5.78;;;3.95;;
6475;SDS011;3271;51.910;5.840;2023-07-22T14:21:35;4.47;;;3.58;;
6475;SDS011;3271;51.910;5.840;2023-07-22T14:24:01;5.57;;;3.38;;
6475;SDS011;3271;51.910;5.840;2023-07-22T14:26:27;4.18;;;3.75;;
6475;SDS011;3271;51.910;5.840;2023-07-22T14:28:53;4.30;;;3.85;;
6475;SDS011;3271;51.910;5.840;2023-07-22T14:31:19;6.25;;;4.50;;
6475;SDS011;3271;51.910;5.840;2023-07-22T14:33:44;5.05;;;3.80;;
6475;SDS011;3271;51.910;5.840;2023-07-22T14:36:10;6.10;;;4.50;;
6475;SDS011;3271;51.910;5.840;2023-07-22T14:38:37;3.42;;;3.13;;
6475;SDS011;3271;51.910;5.840;2023-07-22T14:41:02;5.97;;;3.00;;
6475;SDS011;3271;51.910;5.840;2023-07-22T14:43:28;6.50;;;3.30;;
6475;SDS011;3271;51.910;5.840;2023-07-22T14:45:54;4.57;;;3.65;;
6475;SDS011;3271;51.910;5.840;2023-07-22T14:48:21;5.35;;;3.28;;
6475;SDS011;3271;51.910;5.840;2023-07-22T14:50:47;5.43;;;2.88;;
6475;SDS011;3271;51.910;5.840;2023-07-22T14:53:13;5.50;;;3.20;;
6475;SDS011;3271;51.910;5.840;2023-07-22T14:55:39;3.75;;;3.30;;
6475;SDS011;3271;51.910;5.840;2023-07-22T14:58:05;5.07;;;3.47;;
6475;SDS011;3271;51.910;5.840;2023-07-22T15:00:31;4.10;;;3.22;;
6475;SDS011;3271;51.910;5.840;2023-07-22T15:02:57;5.65;;;3.10;;